sensor_id;sensor_type;location;lat;lon;timestamp;P1;durP1;ratioP1;P2;durP2;ratioP2
56321;SDS011;42227;6.376;-10.782;2023-02-25T00:01:43;36.83;;;17.85;;
56321;SDS011;42227;6.376;-10.782;2023-02-25T00:04:28;40.97;;;16.63;;
56321;SDS011;42227;6.376;-10.782;2023-02-25T00:06:57;49.90;;;22.20;;
56321;SDS011;42227;6.376;-10.782;2023-02-25T00:09:26;39.78;;;17.38;;
56321;SDS011;42227;6.376;-10.782;2023-02-25T00:11:56;36.90;;;18.13;;
56321;SDS011;42227;6.376;-10.782;2023-02-25T00:14:24;28.50;;;16.50;;
56321;SDS011;42227;6.376;-10.782;2023-02-25T00:16:53;29.33;;;15.63;;
56321;SDS011;42227;6.376;-10.782;2023-02-25T00:19:23;37.70;;;17.90;;
56321;SDS011;42227;6.376;-10.782;2023-02-25T00:21:52;27.67;;;16.17;;
56321;SDS011;42227;6.376;-10.782;2023-02-25T00:24:20;34.45;;;17.13;;
56321;SDS011;42227;6.376;-10.782;2023-02-25T00:26:48;46.63;;;20.75;;
56321;SDS011;42227;6.376;-10.782;2023-02-25T00:29:17;37.53;;;16.15;;
56321;SDS011;42227;6.376;-10.782;2023-02-25T00:31:45;48.33;;;19.85;;
56321;SDS011;42227;6.376;-10.782;2023-02-25T00:34:13;36.65;;;20.20;;
56321;SDS011;42227;6.376;-10.782;2023-02-25T00:36:42;47.55;;;20.52;;
56321;SDS011;42227;6.376;-10.782;2023-02-25T00:39:10;36.45;;;18.77;;
56321;SDS011;42227;6.376;-10.782;2023-02-25T00:41:39;42.78;;;18.40;;
56321;SDS011;42227;6.376;-10.782;2023-02-25T00:44:07;39.60;;;18.00;;
56321;SDS011;42227;6.376;-10.782;2023-02-25T00:46:36;65.18;;;22.58;;
56321;SDS011;42227;6.376;-10.782;2023-02-25T00:49:05;37.80;;;18.63;;
56321;SDS011;42227;6.376;-10.782;2023-02-25T00:51:33;41.15;;;20.42;;
56321;SDS011;42227;6.376;-10.782;2023-02-25T00:54:04;51.28;;;19.42;;
56321;SDS011;42227;6.376;-10.782;2023-02-25T00:56:34;37.13;;;19.05;;
56321;SDS011;42227;6.376;-10.782;2023-02-25T00:59:02;37.65;;;16.52;;
56321;SDS011;42227;6.376;-10.782;2023-02-25T01:01:31;32.88;;;16.98;;
56321;SDS011;42227;6.376;-10.782;2023-02-25T01:04:00;40.20;;;17.17;;
56321;SDS011;42227;6.376;-10.782;2023-02-25T01:06:30;23.10;;;14.93;;
56321;SDS011;42227;6.376;-10.782;2023-02-25T01:09:01;28.70;;;16.10;;
56321;SDS011;42227;6.376;-10.782;2023-02-25T01:11:32;44.78;;;16.90;;
56321;SDS011;42227;6.376;-10.782;2023-02-25T01:14:04;39.20;;;16.80;;
56321;SDS011;42227;6.376;-10.782;2023-02-25T01:16:35;38.90;;;16.38;;
56321;SDS011;42227;6.376;-10.782;2023-02-25T01:19:06;29.98;;;17.02;;
56321;SDS011;42227;6.376;-10.782;2023-02-25T01:21:43;37.42;;;19.35;;
56321;SDS011;42227;6.376;-10.782;2023-02-25T01:24:15;58.30;;;22.02;;
56321;SDS011;42227;6.376;-10.782;2023-02-25T01:26:45;45.25;;;19.63;;
56321;SDS011;42227;6.376;-10.782;2023-02-25T01:29:16;52.92;;;21.58;;
56321;SDS011;42227;6.376;-10.782;2023-02-25T01:31:53;54.88;;;22.92;;
56321;SDS011;42227;6.376;-10.782;2023-02-25T01:34:23;43.47;;;21.73;;
56321;SDS011;42227;6.376;-10.782;2023-02-25T01:36:52;54.65;;;23.08;;
56321;SDS011;42227;6.376;-10.782;2023-02-25T01:39:22;65.60;;;23.65;;
56321;SDS011;42227;6.376;-10.782;2023-02-25T01:41:53;47.00;;;22.75;;
56321;SDS011;42227;6.376;-10.782;2023-02-25T01:46:57;55.15;;;21.77;;
56321;SDS011;42227;6.376;-10.782;2023-02-25T01:49:28;67.38;;;23.50;;
56321;SDS011;42227;6.376;-10.782;2023-02-25T01:52:20;45.80;;;21.23;;
56321;SDS011;42227;6.376;-10.782;2023-02-25T01:54:52;62.83;;;20.83;;
56321;SDS011;42227;6.376;-10.782;2023-02-25T01:57:24;47.28;;;20.25;;
56321;SDS011;42227;6.376;-10.782;2023-02-25T01:59:53;54.25;;;21.58;;
56321;SDS011;42227;6.376;-10.782;2023-02-25T02:02:23;62.90;;;22.63;;
56321;SDS011;42227;6.376;-10.782;2023-02-25T02:07:23;55.97;;;23.13;;
56321;SDS011;42227;6.376;-10.782;2023-02-25T02:09:51;56.53;;;20.05;;
56321;SDS011;42227;6.376;-10.782;2023-02-25T02:12:20;58.33;;;21.80;;
56321;SDS011;42227;6.376;-10.782;2023-02-25T02:14:53;68.18;;;22.98;;
56321;SDS011;42227;6.376;-10.782;2023-02-25T02:20:22;47.38;;;21.80;;
56321;SDS011;42227;6.376;-10.782;2023-02-25T02:23:25;57.15;;;21.95;;
56321;SDS011;42227;6.376;-10.782;2023-02-25T02:40:20;43.65;;;20.30;;
56321;SDS011;42227;6.376;-10.782;2023-02-25T02:46:39;51.87;;;22.40;;
56321;SDS011;42227;6.376;-10.782;2023-02-25T02:51:35;39.42;;;19.00;;
56321;SDS011;42227;6.376;-10.782;2023-02-25T02:54:07;47.53;;;21.52;;
56321;SDS011;42227;6.376;-10.782;2023-02-25T02:56:37;47.92;;;19.45;;
56321;SDS011;42227;6.376;-10.782;2023-02-25T02:59:29;47.45;;;20.30;;
56321;SDS011;42227;6.376;-10.782;2023-02-25T03:02:07;66.82;;;19.70;;
56321;SDS011;42227;6.376;-10.782;2023-02-25T03:04:42;60.60;;;20.05;;
56321;SDS011;42227;6.376;-10.782;2023-02-25T03:07:15;58.30;;;19.67;;
56321;SDS011;42227;6.376;-10.782;2023-02-25T03:09:49;51.53;;;19.77;;
56321;SDS011;42227;6.376;-10.782;2023-02-25T03:12:20;54.72;;;20.20;;
56321;SDS011;42227;6.376;-10.782;2023-02-25T03:14:48;40.17;;;17.65;;
56321;SDS011;42227;6.376;-10.782;2023-02-25T03:17:21;43.97;;;17.10;;
56321;SDS011;42227;6.376;-10.782;2023-02-25T03:22:37;54.85;;;18.55;;
56321;SDS011;42227;6.376;-10.782;2023-02-25T03:25:25;46.15;;;19.67;;
56321;SDS011;42227;6.376;-10.782;2023-02-25T03:27:59;51.53;;;20.70;;
56321;SDS011;42227;6.376;-10.782;2023-02-25T03:35:58;49.38;;;20.55;;
56321;SDS011;42227;6.376;-10.782;2023-02-25T03:38:30;49.38;;;21.23;;
56321;SDS011;42227;6.376;-10.782;2023-02-25T03:41:02;62.42;;;25.30;;
56321;SDS011;42227;6.376;-10.782;2023-02-25T03:43:35;50.03;;;24.05;;
56321;SDS011;42227;6.376;-10.782;2023-02-25T03:46:17;51.50;;;24.15;;
56321;SDS011;42227;6.376;-10.782;2023-02-25T03:48:47;47.90;;;22.00;;
56321;SDS011;42227;6.376;-10.782;2023-02-25T03:51:20;68.77;;;21.13;;
56321;SDS011;42227;6.376;-10.782;2023-02-25T03:53:53;48.28;;;22.05;;
56321;SDS011;42227;6.376;-10.782;2023-02-25T03:56:27;47.88;;;22.23;;
56321;SDS011;42227;6.376;-10.782;2023-02-25T03:58:56;70.00;;;26.25;;
56321;SDS011;42227;6.376;-10.782;2023-02-25T04:01:26;58.28;;;25.13;;
56321;SDS011;42227;6.376;-10.782;2023-02-25T04:03:57;55.47;;;23.27;;
56321;SDS011;42227;6.376;-10.782;2023-02-25T04:06:25;52.65;;;25.17;;
56321;SDS011;42227;6.376;-10.782;2023-02-25T04:08:53;70.25;;;26.17;;
56321;SDS011;42227;6.376;-10.782;2023-02-25T04:11:22;64.97;;;24.33;;
56321;SDS011;42227;6.376;-10.782;2023-02-25T04:13:51;72.38;;;25.95;;
56321;SDS011;42227;6.376;-10.782;2023-02-25T04:16:20;58.88;;;24.52;;
56321;SDS011;42227;6.376;-10.782;2023-02-25T04:18:49;64.82;;;27.67;;
56321;SDS011;42227;6.376;-10.782;2023-02-25T04:21:24;68.63;;;26.20;;
56321;SDS011;42227;6.376;-10.782;2023-02-25T04:23:54;50.60;;;23.40;;
56321;SDS011;42227;6.376;-10.782;2023-02-25T04:26:23;66.93;;;24.77;;
56321;SDS011;42227;6.376;-10.782;2023-02-25T04:28:51;53.55;;;29.92;;
56321;SDS011;42227;6.376;-10.782;2023-02-25T04:31:20;77.03;;;29.95;;
56321;SDS011;42227;6.376;-10.782;2023-02-25T04:33:49;73.60;;;28.20;;
56321;SDS011;42227;6.376;-10.782;2023-02-25T04:36:26;64.38;;;30.38;;
56321;SDS011;42227;6.376;-10.782;2023-02-25T04:39:01;60.45;;;30.35;;
56321;SDS011;42227;6.376;-10.782;2023-02-25T04:41:33;63.70;;;29.33;;
56321;SDS011;42227;6.376;-10.782;2023-02-25T04:44:03;63.92;;;28.02;;
56321;SDS011;42227;6.376;-10.782;2023-02-25T04:46:33;78.45;;;29.98;;
56321;SDS011;42227;6.376;-10.782;2023-02-25T04:49:05;58.20;;;28.67;;
56321;SDS011;42227;6.376;-10.782;2023-02-25T04:51:34;73.72;;;27.80;;
56321;SDS011;42227;6.376;-10.782;2023-02-25T04:54:04;83.95;;;29.27;;
56321;SDS011;42227;6.376;-10.782;2023-02-25T04:56:33;63.28;;;23.90;;
56321;SDS011;42227;6.376;-10.782;2023-02-25T04:59:03;99.93;;;26.65;;
56321;SDS011;42227;6.376;-10.782;2023-02-25T05:01:32;78.40;;;27.20;;
56321;SDS011;42227;6.376;-10.782;2023-02-25T05:04:00;73.78;;;25.65;;
56321;SDS011;42227;6.376;-10.782;2023-02-25T05:06:29;66.78;;;24.65;;
56321;SDS011;42227;6.376;-10.782;2023-02-25T05:08:58;76.10;;;26.90;;
56321;SDS011;42227;6.376;-10.782;2023-02-25T05:11:27;92.30;;;31.42;;
56321;SDS011;42227;6.376;-10.782;2023-02-25T05:13:55;64.78;;;25.75;;
56321;SDS011;42227;6.376;-10.782;2023-02-25T05:16:24;48.00;;;23.88;;
56321;SDS011;42227;6.376;-10.782;2023-02-25T05:18:53;66.47;;;29.05;;
56321;SDS011;42227;6.376;-10.782;2023-02-25T05:21:22;73.65;;;27.60;;
56321;SDS011;42227;6.376;-10.782;2023-02-25T05:23:51;63.03;;;25.17;;
56321;SDS011;42227;6.376;-10.782;2023-02-25T05:26:20;51.60;;;24.92;;
56321;SDS011;42227;6.376;-10.782;2023-02-25T05:28:51;54.47;;;24.42;;
56321;SDS011;42227;6.376;-10.782;2023-02-25T05:31:21;69.03;;;26.35;;
56321;SDS011;42227;6.376;-10.782;2023-02-25T05:33:50;53.97;;;23.90;;
56321;SDS011;42227;6.376;-10.782;2023-02-25T05:36:19;64.28;;;24.80;;
56321;SDS011;42227;6.376;-10.782;2023-02-25T05:38:54;56.70;;;23.90;;
56321;SDS011;42227;6.376;-10.782;2023-02-25T05:41:24;82.03;;;23.85;;
56321;SDS011;42227;6.376;-10.782;2023-02-25T05:43:53;67.15;;;22.70;;
56321;SDS011;42227;6.376;-10.782;2023-02-25T05:46:21;73.85;;;24.20;;
56321;SDS011;42227;6.376;-10.782;2023-02-25T05:48:51;59.72;;;22.20;;
56321;SDS011;42227;6.376;-10.782;2023-02-25T05:51:20;65.28;;;23.02;;
56321;SDS011;42227;6.376;-10.782;2023-02-25T05:53:50;55.85;;;22.80;;
56321;SDS011;42227;6.376;-10.782;2023-02-25T05:56:20;69.88;;;25.08;;
56321;SDS011;42227;6.376;-10.782;2023-02-25T05:58:50;56.92;;;20.92;;
56321;SDS011;42227;6.376;-10.782;2023-02-25T06:01:23;65.10;;;24.83;;
56321;SDS011;42227;6.376;-10.782;2023-02-25T06:03:52;67.47;;;24.33;;
56321;SDS011;42227;6.376;-10.782;2023-02-25T06:06:20;59.78;;;23.73;;
56321;SDS011;42227;6.376;-10.782;2023-02-25T06:08:50;68.65;;;23.48;;
56321;SDS011;42227;6.376;-10.782;2023-02-25T06:11:20;65.63;;;23.00;;
56321;SDS011;42227;6.376;-10.782;2023-02-25T06:13:54;76.72;;;27.13;;
56321;SDS011;42227;6.376;-10.782;2023-02-25T06:16:23;60.83;;;26.63;;
56321;SDS011;42227;6.376;-10.782;2023-02-25T06:18:53;62.97;;;24.83;;
56321;SDS011;42227;6.376;-10.782;2023-02-25T06:21:21;71.47;;;25.27;;
56321;SDS011;42227;6.376;-10.782;2023-02-25T06:23:50;79.70;;;32.05;;
56321;SDS011;42227;6.376;-10.782;2023-02-25T06:26:19;74.20;;;27.95;;
56321;SDS011;42227;6.376;-10.782;2023-02-25T06:28:48;86.28;;;26.45;;
56321;SDS011;42227;6.376;-10.782;2023-02-25T06:31:17;61.03;;;28.20;;
56321;SDS011;42227;6.376;-10.782;2023-02-25T06:33:47;73.30;;;33.03;;
56321;SDS011;42227;6.376;-10.782;2023-02-25T06:36:15;90.50;;;35.67;;
56321;SDS011;42227;6.376;-10.782;2023-02-25T06:38:44;58.20;;;27.00;;
56321;SDS011;42227;6.376;-10.782;2023-02-25T06:41:14;87.30;;;44.67;;
56321;SDS011;42227;6.376;-10.782;2023-02-25T06:43:44;154.02;;;117.10;;
56321;SDS011;42227;6.376;-10.782;2023-02-25T06:46:13;202.07;;;125.15;;
56321;SDS011;42227;6.376;-10.782;2023-02-25T06:48:42;214.00;;;136.48;;
56321;SDS011;42227;6.376;-10.782;2023-02-25T06:51:10;250.82;;;193.38;;
56321;SDS011;42227;6.376;-10.782;2023-02-25T06:53:39;226.35;;;188.98;;
56321;SDS011;42227;6.376;-10.782;2023-02-25T06:56:09;176.43;;;135.10;;
56321;SDS011;42227;6.376;-10.782;2023-02-25T06:58:40;153.57;;;85.35;;
56321;SDS011;42227;6.376;-10.782;2023-02-25T07:01:09;140.95;;;61.75;;
56321;SDS011;42227;6.376;-10.782;2023-02-25T07:03:39;104.78;;;62.50;;
56321;SDS011;42227;6.376;-10.782;2023-02-25T07:06:08;109.00;;;58.92;;
56321;SDS011;42227;6.376;-10.782;2023-02-25T07:08:37;150.70;;;69.75;;
56321;SDS011;42227;6.376;-10.782;2023-02-25T07:11:09;123.40;;;58.80;;
56321;SDS011;42227;6.376;-10.782;2023-02-25T07:13:42;82.32;;;45.10;;
56321;SDS011;42227;6.376;-10.782;2023-02-25T07:16:11;85.20;;;37.55;;
56321;SDS011;42227;6.376;-10.782;2023-02-25T07:18:40;94.90;;;44.08;;
56321;SDS011;42227;6.376;-10.782;2023-02-25T07:21:09;94.72;;;48.13;;
56321;SDS011;42227;6.376;-10.782;2023-02-25T07:23:38;103.30;;;45.70;;
56321;SDS011;42227;6.376;-10.782;2023-02-25T07:26:08;105.43;;;45.88;;
56321;SDS011;42227;6.376;-10.782;2023-02-25T07:28:38;79.07;;;39.83;;
56321;SDS011;42227;6.376;-10.782;2023-02-25T07:31:11;93.43;;;32.30;;
56321;SDS011;42227;6.376;-10.782;2023-02-25T07:33:44;64.47;;;27.20;;
56321;SDS011;42227;6.376;-10.782;2023-02-25T07:36:13;82.68;;;28.20;;
56321;SDS011;42227;6.376;-10.782;2023-02-25T07:38:42;64.93;;;28.50;;
56321;SDS011;42227;6.376;-10.782;2023-02-25T07:41:12;67.72;;;29.05;;
56321;SDS011;42227;6.376;-10.782;2023-02-25T07:43:42;70.65;;;33.60;;
56321;SDS011;42227;6.376;-10.782;2023-02-25T07:46:13;69.78;;;27.65;;
56321;SDS011;42227;6.376;-10.782;2023-02-25T07:48:42;72.75;;;27.60;;
56321;SDS011;42227;6.376;-10.782;2023-02-25T07:51:20;85.82;;;31.38;;
56321;SDS011;42227;6.376;-10.782;2023-02-25T07:53:50;80.55;;;27.80;;
56321;SDS011;42227;6.376;-10.782;2023-02-25T07:56:20;58.58;;;27.15;;
56321;SDS011;42227;6.376;-10.782;2023-02-25T07:58:51;80.65;;;27.67;;
56321;SDS011;42227;6.376;-10.782;2023-02-25T08:01:20;69.78;;;28.13;;
56321;SDS011;42227;6.376;-10.782;2023-02-25T08:03:55;62.22;;;25.83;;
56321;SDS011;42227;6.376;-10.782;2023-02-25T08:06:25;74.28;;;25.08;;
56321;SDS011;42227;6.376;-10.782;2023-02-25T08:08:54;58.35;;;28.80;;
56321;SDS011;42227;6.376;-10.782;2023-02-25T08:11:23;90.53;;;33.00;;
56321;SDS011;42227;6.376;-10.782;2023-02-25T08:13:52;51.33;;;32.60;;
56321;SDS011;42227;6.376;-10.782;2023-02-25T08:16:21;49.97;;;26.10;;
56321;SDS011;42227;6.376;-10.782;2023-02-25T08:18:50;74.72;;;30.40;;
56321;SDS011;42227;6.376;-10.782;2023-02-25T08:21:20;67.88;;;27.90;;
56321;SDS011;42227;6.376;-10.782;2023-02-25T08:23:50;70.50;;;29.45;;
56321;SDS011;42227;6.376;-10.782;2023-02-25T08:26:20;67.15;;;25.27;;
56321;SDS011;42227;6.376;-10.782;2023-02-25T08:28:49;62.83;;;27.30;;
56321;SDS011;42227;6.376;-10.782;2023-02-25T08:31:18;63.55;;;28.30;;
56321;SDS011;42227;6.376;-10.782;2023-02-25T08:33:48;63.33;;;24.13;;
56321;SDS011;42227;6.376;-10.782;2023-02-25T08:36:19;57.28;;;24.52;;
56321;SDS011;42227;6.376;-10.782;2023-02-25T08:38:55;65.35;;;27.52;;
56321;SDS011;42227;6.376;-10.782;2023-02-25T08:41:25;65.60;;;25.02;;
56321;SDS011;42227;6.376;-10.782;2023-02-25T08:43:55;67.90;;;29.75;;
56321;SDS011;42227;6.376;-10.782;2023-02-25T08:46:26;75.63;;;38.40;;
56321;SDS011;42227;6.376;-10.782;2023-02-25T08:48:56;58.40;;;23.80;;
56321;SDS011;42227;6.376;-10.782;2023-02-25T08:51:25;47.38;;;24.33;;
56321;SDS011;42227;6.376;-10.782;2023-02-25T08:53:54;54.63;;;23.83;;
56321;SDS011;42227;6.376;-10.782;2023-02-25T08:56:22;63.72;;;22.60;;
56321;SDS011;42227;6.376;-10.782;2023-02-25T08:58:51;49.13;;;19.00;;
56321;SDS011;42227;6.376;-10.782;2023-02-25T09:01:21;59.40;;;20.00;;
56321;SDS011;42227;6.376;-10.782;2023-02-25T09:03:50;54.42;;;17.98;;
56321;SDS011;42227;6.376;-10.782;2023-02-25T09:08:49;52.25;;;24.35;;
56321;SDS011;42227;6.376;-10.782;2023-02-25T09:11:19;58.75;;;26.88;;
56321;SDS011;42227;6.376;-10.782;2023-02-25T09:13:48;61.47;;;23.58;;
56321;SDS011;42227;6.376;-10.782;2023-02-25T09:16:18;50.42;;;21.80;;
56321;SDS011;42227;6.376;-10.782;2023-02-25T09:18:47;39.67;;;20.95;;
56321;SDS011;42227;6.376;-10.782;2023-02-25T09:21:16;50.78;;;20.13;;
56321;SDS011;42227;6.376;-10.782;2023-02-25T09:23:46;64.85;;;25.75;;
56321;SDS011;42227;6.376;-10.782;2023-02-25T09:26:14;62.30;;;26.85;;
56321;SDS011;42227;6.376;-10.782;2023-02-25T09:28:43;63.38;;;25.55;;
56321;SDS011;42227;6.376;-10.782;2023-02-25T09:31:15;50.03;;;16.80;;
56321;SDS011;42227;6.376;-10.782;2023-02-25T09:33:44;33.33;;;16.08;;
56321;SDS011;42227;6.376;-10.782;2023-02-25T09:36:14;57.85;;;19.08;;
56321;SDS011;42227;6.376;-10.782;2023-02-25T09:38:44;54.40;;;19.08;;
56321;SDS011;42227;6.376;-10.782;2023-02-25T09:41:38;61.78;;;20.08;;
56321;SDS011;42227;6.376;-10.782;2023-02-25T09:47:11;40.22;;;15.50;;
56321;SDS011;42227;6.376;-10.782;2023-02-25T09:55:34;44.05;;;18.70;;
56321;SDS011;42227;6.376;-10.782;2023-02-25T10:04:08;38.15;;;16.10;;
56321;SDS011;42227;6.376;-10.782;2023-02-25T10:06:46;48.70;;;15.85;;
56321;SDS011;42227;6.376;-10.782;2023-02-25T10:25:36;35.97;;;15.75;;
56321;SDS011;42227;6.376;-10.782;2023-02-25T10:28:12;35.28;;;16.38;;
56321;SDS011;42227;6.376;-10.782;2023-02-25T10:33:36;38.70;;;16.30;;
56321;SDS011;42227;6.376;-10.782;2023-02-25T10:36:07;27.88;;;14.57;;
56321;SDS011;42227;6.376;-10.782;2023-02-25T10:38:37;53.05;;;19.20;;
56321;SDS011;42227;6.376;-10.782;2023-02-25T10:41:10;41.90;;;17.17;;
56321;SDS011;42227;6.376;-10.782;2023-02-25T10:43:38;43.92;;;17.55;;
56321;SDS011;42227;6.376;-10.782;2023-02-25T10:49:17;47.90;;;17.33;;
56321;SDS011;42227;6.376;-10.782;2023-02-25T10:52:00;48.55;;;16.35;;
56321;SDS011;42227;6.376;-10.782;2023-02-25T10:54:34;29.23;;;15.85;;
56321;SDS011;42227;6.376;-10.782;2023-02-25T10:57:14;49.67;;;18.15;;
56321;SDS011;42227;6.376;-10.782;2023-02-25T10:59:45;44.50;;;16.42;;
56321;SDS011;42227;6.376;-10.782;2023-02-25T11:02:23;34.30;;;14.02;;
56321;SDS011;42227;6.376;-10.782;2023-02-25T11:04:54;50.67;;;14.48;;
56321;SDS011;42227;6.376;-10.782;2023-02-25T11:10:21;36.30;;;14.65;;
56321;SDS011;42227;6.376;-10.782;2023-02-25T11:12:51;47.17;;;17.02;;
56321;SDS011;42227;6.376;-10.782;2023-02-25T11:20:50;36.30;;;15.50;;
56321;SDS011;42227;6.376;-10.782;2023-02-25T11:23:23;32.03;;;13.32;;
56321;SDS011;42227;6.376;-10.782;2023-02-25T11:25:58;35.55;;;16.15;;
56321;SDS011;42227;6.376;-10.782;2023-02-25T11:31:22;38.70;;;14.25;;
56321;SDS011;42227;6.376;-10.782;2023-02-25T11:34:01;57.42;;;17.50;;
56321;SDS011;42227;6.376;-10.782;2023-02-25T11:36:39;41.97;;;17.38;;
56321;SDS011;42227;6.376;-10.782;2023-02-25T11:39:16;38.30;;;14.98;;
56321;SDS011;42227;6.376;-10.782;2023-02-25T11:41:53;41.20;;;16.60;;
56321;SDS011;42227;6.376;-10.782;2023-02-25T11:44:29;35.08;;;14.32;;
56321;SDS011;42227;6.376;-10.782;2023-02-25T11:52:30;48.17;;;15.13;;
56321;SDS011;42227;6.376;-10.782;2023-02-25T11:55:12;35.00;;;15.50;;
56321;SDS011;42227;6.376;-10.782;2023-02-25T12:14:30;49.63;;;14.45;;
56321;SDS011;42227;6.376;-10.782;2023-02-25T12:39:42;43.15;;;16.00;;
56321;SDS011;42227;6.376;-10.782;2023-02-25T12:51:14;30.25;;;13.63;;
56321;SDS011;42227;6.376;-10.782;2023-02-25T12:54:06;44.22;;;15.10;;
56321;SDS011;42227;6.376;-10.782;2023-02-25T13:00:02;43.63;;;13.65;;
56321;SDS011;42227;6.376;-10.782;2023-02-25T13:13:59;29.20;;;13.77;;
56321;SDS011;42227;6.376;-10.782;2023-02-25T13:23:07;36.35;;;16.10;;
56321;SDS011;42227;6.376;-10.782;2023-02-25T13:31:19;31.52;;;12.73;;
56321;SDS011;42227;6.376;-10.782;2023-02-25T13:39:49;54.03;;;15.60;;
56321;SDS011;42227;6.376;-10.782;2023-02-25T13:42:48;45.60;;;14.57;;
56321;SDS011;42227;6.376;-10.782;2023-02-25T13:45:37;22.13;;;11.35;;
56321;SDS011;42227;6.376;-10.782;2023-02-25T13:54:27;39.40;;;14.32;;
56321;SDS011;42227;6.376;-10.782;2023-02-25T14:00:03;37.45;;;15.40;;
56321;SDS011;42227;6.376;-10.782;2023-02-25T14:03:02;33.67;;;16.13;;
56321;SDS011;42227;6.376;-10.782;2023-02-25T14:19:39;40.50;;;17.92;;
56321;SDS011;42227;6.376;-10.782;2023-02-25T14:22:33;53.33;;;24.23;;
56321;SDS011;42227;6.376;-10.782;2023-02-25T14:45:26;52.25;;;20.15;;
56321;SDS011;42227;6.376;-10.782;2023-02-25T14:48:03;43.67;;;15.97;;
56321;SDS011;42227;6.376;-10.782;2023-02-25T14:50:43;44.95;;;18.38;;
56321;SDS011;42227;6.376;-10.782;2023-02-25T14:56:40;52.03;;;17.42;;
56321;SDS011;42227;6.376;-10.782;2023-02-25T15:02:37;35.05;;;16.10;;
56321;SDS011;42227;6.376;-10.782;2023-02-25T15:08:37;62.42;;;20.88;;
56321;SDS011;42227;6.376;-10.782;2023-02-25T15:14:14;47.92;;;18.70;;
56321;SDS011;42227;6.376;-10.782;2023-02-25T15:22:22;45.97;;;18.35;;
56321;SDS011;42227;6.376;-10.782;2023-02-25T15:24:53;51.47;;;17.00;;
56321;SDS011;42227;6.376;-10.782;2023-02-25T15:27:41;37.65;;;16.52;;
56321;SDS011;42227;6.376;-10.782;2023-02-25T15:30:14;52.65;;;19.73;;
56321;SDS011;42227;6.376;-10.782;2023-02-25T15:35:50;50.83;;;17.77;;
56321;SDS011;42227;6.376;-10.782;2023-02-25T15:38:21;58.45;;;19.13;;
56321;SDS011;42227;6.376;-10.782;2023-02-25T15:51:44;63.72;;;17.73;;
56321;SDS011;42227;6.376;-10.782;2023-02-25T15:57:01;57.28;;;19.63;;
56321;SDS011;42227;6.376;-10.782;2023-02-25T15:59:50;45.47;;;17.98;;
56321;SDS011;42227;6.376;-10.782;2023-02-25T16:04:59;40.20;;;16.92;;
56321;SDS011;42227;6.376;-10.782;2023-02-25T16:07:38;46.22;;;17.05;;
56321;SDS011;42227;6.376;-10.782;2023-02-25T16:12:50;46.92;;;18.00;;
56321;SDS011;42227;6.376;-10.782;2023-02-25T16:21:13;48.17;;;18.20;;
56321;SDS011;42227;6.376;-10.782;2023-02-25T16:23:49;61.30;;;19.58;;
56321;SDS011;42227;6.376;-10.782;2023-02-25T16:26:21;42.90;;;16.35;;
56321;SDS011;42227;6.376;-10.782;2023-02-25T16:31:40;44.60;;;17.85;;
56321;SDS011;42227;6.376;-10.782;2023-02-25T16:34:26;36.75;;;16.80;;
56321;SDS011;42227;6.376;-10.782;2023-02-25T16:40:15;44.53;;;16.98;;
56321;SDS011;42227;6.376;-10.782;2023-02-25T16:43:09;41.88;;;17.08;;
56321;SDS011;42227;6.376;-10.782;2023-02-25T16:45:41;54.05;;;19.23;;
56321;SDS011;42227;6.376;-10.782;2023-02-25T16:48:21;56.25;;;19.10;;
56321;SDS011;42227;6.376;-10.782;2023-02-25T16:50:54;53.10;;;18.88;;
56321;SDS011;42227;6.376;-10.782;2023-02-25T16:53:23;41.30;;;17.08;;
56321;SDS011;42227;6.376;-10.782;2023-02-25T16:55:56;55.13;;;21.77;;
56321;SDS011;42227;6.376;-10.782;2023-02-25T16:58:26;48.40;;;17.70;;
56321;SDS011;42227;6.376;-10.782;2023-02-25T17:00:56;52.17;;;19.27;;
56321;SDS011;42227;6.376;-10.782;2023-02-25T17:03:27;63.40;;;19.17;;
56321;SDS011;42227;6.376;-10.782;2023-02-25T17:06:06;52.67;;;17.70;;
56321;SDS011;42227;6.376;-10.782;2023-02-25T17:08:46;60.05;;;17.50;;
56321;SDS011;42227;6.376;-10.782;2023-02-25T17:11:19;42.17;;;19.38;;
56321;SDS011;42227;6.376;-10.782;2023-02-25T17:13:50;42.75;;;16.80;;
56321;SDS011;42227;6.376;-10.782;2023-02-25T17:18:55;57.15;;;18.80;;
56321;SDS011;42227;6.376;-10.782;2023-02-25T17:21:34;48.47;;;20.17;;
56321;SDS011;42227;6.376;-10.782;2023-02-25T17:24:05;50.05;;;20.10;;
56321;SDS011;42227;6.376;-10.782;2023-02-25T17:26:44;49.28;;;18.83;;
56321;SDS011;42227;6.376;-10.782;2023-02-25T17:29:16;53.25;;;19.10;;
56321;SDS011;42227;6.376;-10.782;2023-02-25T17:31:49;59.70;;;18.48;;
56321;SDS011;42227;6.376;-10.782;2023-02-25T17:34:29;57.75;;;20.92;;
56321;SDS011;42227;6.376;-10.782;2023-02-25T17:37:02;56.50;;;20.20;;
56321;SDS011;42227;6.376;-10.782;2023-02-25T17:39:32;50.22;;;20.35;;
56321;SDS011;42227;6.376;-10.782;2023-02-25T17:42:01;44.83;;;19.08;;
56321;SDS011;42227;6.376;-10.782;2023-02-25T17:44:50;70.68;;;24.30;;
56321;SDS011;42227;6.376;-10.782;2023-02-25T17:47:22;45.50;;;17.73;;
56321;SDS011;42227;6.376;-10.782;2023-02-25T17:49:53;55.65;;;20.83;;
56321;SDS011;42227;6.376;-10.782;2023-02-25T17:52:23;47.65;;;19.48;;
56321;SDS011;42227;6.376;-10.782;2023-02-25T17:55:02;70.28;;;22.55;;
56321;SDS011;42227;6.376;-10.782;2023-02-25T17:57:48;55.83;;;19.52;;
56321;SDS011;42227;6.376;-10.782;2023-02-25T18:00:21;65.72;;;21.80;;
56321;SDS011;42227;6.376;-10.782;2023-02-25T18:08:22;68.32;;;23.83;;
56321;SDS011;42227;6.376;-10.782;2023-02-25T18:10:55;68.57;;;24.92;;
56321;SDS011;42227;6.376;-10.782;2023-02-25T18:13:46;68.95;;;24.52;;
56321;SDS011;42227;6.376;-10.782;2023-02-25T18:19:07;70.90;;;23.35;;
56321;SDS011;42227;6.376;-10.782;2023-02-25T18:24:06;52.17;;;20.73;;
56321;SDS011;42227;6.376;-10.782;2023-02-25T18:26:35;66.95;;;24.42;;
56321;SDS011;42227;6.376;-10.782;2023-02-25T18:29:03;77.30;;;24.42;;
56321;SDS011;42227;6.376;-10.782;2023-02-25T18:31:36;67.65;;;23.30;;
56321;SDS011;42227;6.376;-10.782;2023-02-25T18:34:05;62.00;;;23.58;;
56321;SDS011;42227;6.376;-10.782;2023-02-25T18:36:33;64.07;;;22.15;;
56321;SDS011;42227;6.376;-10.782;2023-02-25T18:39:02;53.55;;;20.73;;
56321;SDS011;42227;6.376;-10.782;2023-02-25T18:41:31;58.45;;;22.48;;
56321;SDS011;42227;6.376;-10.782;2023-02-25T18:43:59;56.17;;;20.95;;
56321;SDS011;42227;6.376;-10.782;2023-02-25T18:46:28;54.20;;;18.58;;
56321;SDS011;42227;6.376;-10.782;2023-02-25T18:48:56;43.80;;;19.90;;
56321;SDS011;42227;6.376;-10.782;2023-02-25T18:51:25;58.78;;;20.15;;
56321;SDS011;42227;6.376;-10.782;2023-02-25T18:53:53;52.78;;;20.58;;
56321;SDS011;42227;6.376;-10.782;2023-02-25T18:56:21;62.40;;;21.70;;
56321;SDS011;42227;6.376;-10.782;2023-02-25T18:58:50;56.42;;;20.52;;
56321;SDS011;42227;6.376;-10.782;2023-02-25T19:01:22;57.53;;;21.38;;
56321;SDS011;42227;6.376;-10.782;2023-02-25T19:03:55;56.42;;;23.10;;
56321;SDS011;42227;6.376;-10.782;2023-02-25T19:06:27;61.55;;;20.90;;
56321;SDS011;42227;6.376;-10.782;2023-02-25T19:08:56;60.33;;;20.48;;
56321;SDS011;42227;6.376;-10.782;2023-02-25T19:11:25;54.97;;;19.45;;
56321;SDS011;42227;6.376;-10.782;2023-02-25T19:13:57;59.08;;;22.05;;
56321;SDS011;42227;6.376;-10.782;2023-02-25T19:16:26;64.97;;;20.52;;
56321;SDS011;42227;6.376;-10.782;2023-02-25T19:18:54;62.20;;;22.42;;
56321;SDS011;42227;6.376;-10.782;2023-02-25T19:21:22;57.53;;;19.08;;